Latest Coastal Weather Observations for Kingfish B

IDV60701

Issued at 4:15 pm EDT Tuesday 21 October 2014 (issued every 10 minutes, with the page automatically refreshed every 10 minutes)

About coastal observations | Map of coastal stations | Coastal observations for VIC | Marine services | Other Formats
Station Details ID: 400139 Name: KINGFISH B (PLATFORM) Lat: -38.60 Lon: 148.19 Height: 31.4 m
Data from the previous 72 hours. | See also: Recent months for locations in Victoria
Date/Time
EDT
Temp

°C
Wind Pressure Rain
since 9am
mm
Weather Cloud Vis
km
Sea
Height
m
Swell
Dir
 
Speed
knots
Gust
knots
hPa Trend Height
m
Period
s
Dir
21/04:00pm 15.0 ENE 22 30 1026.7 - - - - - - - - -
21/03:50pm 15.0 ENE 22 30 1026.9 - - - - - - - - -
21/03:40pm 15.1 ENE 22 28 1027.1 - - - - - - - - -
21/03:30pm 15.1 ENE 22 28 1027.1 - - - - - - - - -
21/03:10pm 15.1 ENE 22 28 1027.2 - - - - - - - - -
21/03:00pm 15.1 ENE 21 27 1027.3 - - - - - - - - -
21/02:50pm 15.1 ENE 22 29 1027.4 - - - - - - - - -
21/02:40pm 15.1 ENE 22 28 1027.6 - - - - - - - - -
21/02:30pm 15.0 ENE 21 27 1027.8 - - - - - - - - -
21/02:20pm 15.0 ENE 21 27 1028.0 - - - - - - - - -
21/02:10pm 15.0 ENE 26 31 1028.2 - - - - - - - - -
21/02:00pm 15.0 ENE 24 29 1028.4 - - - - - - - - -
21/01:50pm 15.0 ENE 25 28 1028.5 - - - - - - - - -
21/01:40pm 15.1 ENE 24 29 1028.6 - - - - - - - - -
21/01:30pm 15.1 ENE 25 31 1028.8 - - - - - - - - -
21/01:20pm 15.2 ENE 23 30 1028.9 - - - - - - - - -
21/01:10pm 15.2 ENE 23 31 1028.9 - - - - - - - - -
21/01:00pm 15.3 ENE 21 29 1029.1 - - - - - - - - -
21/12:50pm 15.3 ENE 20 26 1029.4 - - - - - - - - -
21/12:40pm 15.3 ENE 21 26 1029.5 - - - - - - - - -
21/12:30pm 15.2 ENE 20 26 1029.5 - - - - - - - - -
21/12:20pm 15.2 ENE 20 28 1029.6 - - - - - - - - -
21/12:10pm 15.2 ENE 21 29 1029.6 - - - - - - - - -
21/11:50am 15.2 ENE 20 28 1030.1 - - - - - - - - -
21/11:40am 15.3 ENE 20 26 1030.3 - - - - - - - - -
21/11:20am 15.3 ENE 19 25 1030.4 - - - - - - - - -
21/11:10am 15.4 ENE 20 27 1030.4 - - - - - - - - -
21/11:00am 15.4 NE 23 29 1030.3 - - - - - - - - -
21/10:50am 15.4 ENE 21 27 1030.4 - - - - - - - - -
21/10:40am 15.4 NE 23 29 1030.5 - - - - - - - - -
21/10:30am 15.5 NE 24 30 1030.6 - - - - - - - - -
21/10:20am 15.5 NE 26 30 1030.6 - - - - - - - - -
21/10:10am 15.5 NE 25 29 1030.7 - - - - - - - - -
21/10:00am 15.5 NE 22 28 1030.6 - - - - - - - - -
21/09:50am 15.5 NE 25 31 1030.5 - - - - - - - - -
21/09:40am 15.5 NE 26 31 1030.5 - - - - - - - - -
21/09:30am 15.5 NE 26 31 1030.4 - - - - - - - - -
21/09:20am 15.5 NE 25 30 1030.5 - - - - - - - - -
21/09:10am 15.5 NE 24 30 1030.4 - - - - - - - - -
21/09:00am 15.5 NE 24 29 1030.4 - - - - - - - - -
21/08:50am 15.6 NE 26 31 1030.5 - - - - - - - - -
21/08:40am 15.5 NE 26 30 1030.5 - - - - - - - - -
21/08:30am 15.5 NE 24 30 1030.4 - - - - - - - - -
21/08:20am 15.5 NE 26 29 1030.3 - - - - - - - - -
21/08:10am 15.5 NE 25 29 1030.4 - - - - - - - - -
21/08:00am 15.5 NE 25 30 1030.4 - - - - - - - - -
21/07:40am 15.4 NE 24 28 1030.4 - - - - - - - - -
21/07:30am 15.3 NE 23 28 1030.3 - - - - - - - - -
21/07:20am 15.4 NE 23 27 1030.3 - - - - - - - - -
21/07:10am 15.6 NE 22 28 1030.2 - - - - - - - - -
21/07:00am 14.9 NE 21 27 1030.1 - - - - - - - - -
21/06:50am 14.7 NE 20 25 1030.1 - - - - - - - - -
21/06:40am 14.4 ENE 19 24 1030.1 - - - - - - - - -
21/06:30am 14.2 ENE 19 26 1030.1 - - - - - - - - -
21/06:20am 14.2 NE 21 26 1029.9 - - - - - - - - -
21/06:10am 14.2 ENE 19 23 1029.9 - - - - - - - - -
21/06:00am 14.2 ENE 19 27 1029.8 - - - - - - - - -
21/05:50am 14.2 NE 20 26 1029.8 - - - - - - - - -
21/05:40am 14.2 NE 21 26 1029.8 - - - - - - - - -
21/05:30am 14.1 ENE 19 25 1029.9 - - - - - - - - -
21/05:20am 14.1 NE 19 25 1030.0 - - - - - - - - -
21/05:10am 14.0 NE 18 22 1030.0 - - - - - - - - -
21/05:00am 14.1 NE 18 24 1030.0 - - - - - - - - -
21/04:50am 14.1 ENE 16 21 1030.0 - - - - - - - - -
21/04:40am 14.1 ENE 16 22 1030.0 - - - - - - - - -
21/04:30am 14.1 NE 18 25 1030.1 - - - - - - - - -
21/04:20am 14.1 NE 19 23 1030.1 - - - - - - - - -
21/04:10am 14.1 NE 18 23 1030.2 - - - - - - - - -
21/04:00am 14.2 NE 20 23 1030.3 - - - - - - - - -
21/03:50am 14.1 NE 16 21 1030.4 - - - - - - - - -
21/03:40am 14.1 ENE 15 20 1030.4 - - - - - - - - -
21/03:30am 14.1 NE 18 22 1030.5 - - - - - - - - -
21/03:20am 14.1 ENE 15 20 1030.5 - - - - - - - - -
21/03:10am 14.2 NE 18 22 1030.5 - - - - - - - - -
21/03:00am 14.2 NE 20 23 1030.5 - - - - - - - - -
21/02:50am 14.1 NE 18 21 1030.6 - - - - - - - - -
21/02:40am 14.1 ENE 17 22 1030.7 - - - - - - - - -
21/02:30am 14.1 ENE 16 21 1030.8 - - - - - - - - -
21/02:20am 14.0 ENE 15 20 1031.0 - - - - - - - - -
21/02:10am 14.0 ENE 15 19 1031.1 - - - - - - - - -
21/02:00am 14.0 ENE 15 19 1031.3 - - - - - - - - -
21/01:40am 14.0 ENE 16 22 1031.5 - - - - - - - - -
21/01:30am 14.0 ENE 16 23 1031.6 - - - - - - - - -
21/01:20am 13.9 ENE 16 21 1031.6 - - - - - - - - -
21/01:10am 13.9 ENE 17 25 1031.7 - - - - - - - - -
21/01:00am 13.9 ENE 17 24 1031.9 - - - - - - - - -
21/12:50am 13.9 ENE 16 22 1032.0 - - - - - - - - -
21/12:40am 13.8 ENE 19 22 1032.0 - - - - - - - - -
21/12:30am 13.8 ENE 18 22 1032.2 - - - - - - - - -
21/12:20am 13.7 ENE 17 21 1032.2 - - - - - - - - -
21/12:10am 13.7 ENE 18 22 1032.3 - - - - - - - - -
21/12:00am 13.7 ENE 17 23 1032.3 - - - - - - - - -
 
Date/Time
EDT
Temp

°C
Wind Pressure Rain
since 9am
mm
Weather Cloud Vis
km
Sea
Height
m
Swell
Dir
 
Speed
knots
Gust
knots
hPa Trend Height
m
Period
s
Dir
20/11:50pm 13.7 ENE 18 23 1032.3 - - - - - - - - -
20/11:40pm 13.7 ENE 19 23 1032.4 - - - - - - - - -
20/11:30pm 13.7 ENE 19 23 1032.4 - - - - - - - - -
20/11:20pm 13.7 ENE 19 23 1032.5 - - - - - - - - -
20/11:10pm 13.7 ENE 19 24 1032.5 - - - - - - - - -
20/11:00pm 13.7 ENE 20 23 1032.5 - - - - - - - - -
20/10:40pm 13.7 ENE 19 24 1032.6 - - - - - - - - -
20/10:30pm 13.6 ENE 20 23 1032.5 - - - - - - - - -
20/10:20pm 13.6 ENE 20 23 1032.5 - - - - - - - - -
20/10:10pm 13.6 ENE 18 22 1032.5 - - - - - - - - -
20/10:00pm 13.5 ENE 18 23 1032.6 - - - - - - - - -
20/09:50pm 13.5 ENE 18 22 1032.7 - - - - - - - - -
20/09:40pm 13.4 ENE 19 22 1032.7 - - - - - - - - -
20/09:30pm 13.4 ENE 19 22 1032.7 - - - - - - - - -
20/09:20pm 13.4 E 20 24 1032.7 - - - - - - - - -
20/09:10pm 13.4 ENE 19 21 1032.7 - - - - - - - - -
20/09:00pm 13.4 E 19 23 1032.6 - - - - - - - - -
20/08:50pm 13.4 E 18 23 1032.6 - - - - - - - - -
20/08:40pm 13.4 ENE 18 21 1032.5 - - - - - - - - -
20/08:30pm 13.4 E 17 22 1032.4 - - - - - - - - -
20/08:20pm 13.4 ENE 18 21 1032.2 - - - - - - - - -
20/08:10pm 13.3 E 17 21 1032.2 - - - - - - - - -
20/08:00pm 13.3 E 18 21 1032.0 - - - - - - - - -
20/07:50pm 13.3 E 17 21 1031.9 - - - - - - - - -
20/07:40pm 13.3 E 18 21 1031.9 - - - - - - - - -
20/07:30pm 13.3 E 18 22 1031.8 - - - - - - - - -
20/07:20pm 13.3 E 18 21 1031.8 - - - - - - - - -
20/07:00pm 13.3 E 17 20 1031.7 - - - - - - - - -
20/06:50pm 13.3 E 18 21 1031.7 - - - - - - - - -
20/06:40pm 13.3 E 18 21 1031.6 - - - - - - - - -
20/06:30pm 13.2 E 17 20 1031.6 - - - - - - - - -
20/06:20pm 13.2 E 18 21 1031.6 - - - - - - - - -
20/06:10pm 13.2 E 18 24 1031.6 - - - - - - - - -
20/06:00pm 13.2 E 18 21 1031.6 - - - - - - - - -
20/05:50pm 13.2 E 17 20 1031.7 - - - - - - - - -
20/05:40pm 13.2 E 17 20 1031.7 - - - - - - - - -
20/05:30pm 13.3 E 16 20 1031.7 - - - - - - - - -
20/05:20pm 13.3 E 16 20 1031.6 - - - - - - - - -
20/05:10pm 13.2 E 16 20 1031.6 - - - - - - - - -
20/05:00pm 13.2 E 17 21 1031.5 - - - - - - - - -
20/04:50pm 13.2 E 17 22 1031.4 - - - - - - - - -
20/04:40pm 13.1 E 18 21 1031.4 - - - - - - - - -
20/04:30pm 13.2 E 18 21 1031.4 - - - - - - - - -
20/04:20pm 0.0 NE 0 16 1031.4 - - - - - - - - -
20/04:10pm 0.0 NE 0 16 1031.5 - - - - - - - - -
20/04:00pm 0.0 NE 0 16 1031.5 - - - - - - - - -
20/03:50pm 0.0 NE 0 16 1031.5 - - - - - - - - -
20/03:40pm 0.0 NE 0 16 1031.6 - - - - - - - - -
20/03:30pm 0.0 E 16 16 1031.7 - - - - - - - - -
20/03:20pm 13.3 E 15 19 1031.7 - - - - - - - - -

Other Formats:

Comma delimited format used in spreadsheet applications
http://www.bom.gov.au/fwo/IDV60701/IDV60701.55039.axf

JavaScript Object Notation format (JSON) in row-major order
http://www.bom.gov.au/fwo/IDV60701/IDV60701.55039.json